sensor_id;sensor_type;location;lat;lon;timestamp;temperature;humidity
22917;DHT22;11624;53.250;7.456;2023-05-10T00:01:04;21.07;60.43
22917;DHT22;11624;53.250;7.456;2023-05-10T00:03:32;21.08;60.43
22917;DHT22;11624;53.250;7.456;2023-05-10T00:06:00;21.09;60.39
22917;DHT22;11624;53.250;7.456;2023-05-10T00:08:29;21.08;60.27
22917;DHT22;11624;53.250;7.456;2023-05-10T00:10:57;21.07;60.28
22917;DHT22;11624;53.250;7.456;2023-05-10T00:13:26;21.05;60.28
22917;DHT22;11624;53.250;7.456;2023-05-10T00:15:56;21.05;60.22
22917;DHT22;11624;53.250;7.456;2023-05-10T00:18:24;21.05;60.28
22917;DHT22;11624;53.250;7.456;2023-05-10T00:20:52;21.08;60.25
22917;DHT22;11624;53.250;7.456;2023-05-10T00:23:21;21.10;60.13
22917;DHT22;11624;53.250;7.456;2023-05-10T00:25:49;21.07;60.10
22917;DHT22;11624;53.250;7.456;2023-05-10T00:28:17;21.00;60.20
22917;DHT22;11624;53.250;7.456;2023-05-10T00:30:46;20.96;60.26
22917;DHT22;11624;53.250;7.456;2023-05-10T00:33:15;20.89;60.38
22917;DHT22;11624;53.250;7.456;2023-05-10T00:35:44;20.88;60.45
22917;DHT22;11624;53.250;7.456;2023-05-10T00:38:12;20.91;60.39
22917;DHT22;11624;53.250;7.456;2023-05-10T00:40:41;20.93;60.35
22917;DHT22;11624;53.250;7.456;2023-05-10T00:43:17;20.92;60.31
22917;DHT22;11624;53.250;7.456;2023-05-10T00:45:46;20.85;60.46
22917;DHT22;11624;53.250;7.456;2023-05-10T00:48:16;20.83;60.41
22917;DHT22;11624;53.250;7.456;2023-05-10T00:50:45;20.83;60.46
22917;DHT22;11624;53.250;7.456;2023-05-10T00:53:14;20.80;60.44
22917;DHT22;11624;53.250;7.456;2023-05-10T00:55:43;20.81;60.39
22917;DHT22;11624;53.250;7.456;2023-05-10T00:58:13;20.81;60.35
22917;DHT22;11624;53.250;7.456;2023-05-10T01:00:41;20.78;60.45
22917;DHT22;11624;53.250;7.456;2023-05-10T01:03:10;20.79;60.37
22917;DHT22;11624;53.250;7.456;2023-05-10T01:05:42;20.78;60.33
22917;DHT22;11624;53.250;7.456;2023-05-10T01:08:10;20.66;60.64
22917;DHT22;11624;53.250;7.456;2023-05-10T01:10:38;20.70;60.58
22917;DHT22;11624;53.250;7.456;2023-05-10T01:13:07;20.70;60.56
22917;DHT22;11624;53.250;7.456;2023-05-10T01:15:36;20.65;60.60
22917;DHT22;11624;53.250;7.456;2023-05-10T01:18:05;20.58;60.71
22917;DHT22;11624;53.250;7.456;2023-05-10T01:20:43;20.56;60.45
22917;DHT22;11624;53.250;7.456;2023-05-10T01:23:44;20.50;60.61
22917;DHT22;11624;53.250;7.456;2023-05-10T01:26:34;20.50;60.47
22917;DHT22;11624;53.250;7.456;2023-05-10T01:29:15;20.46;60.58
22917;DHT22;11624;53.250;7.456;2023-05-10T01:34:49;20.43;60.65
22917;DHT22;11624;53.250;7.456;2023-05-10T01:37:31;20.42;60.51
22917;DHT22;11624;53.250;7.456;2023-05-10T01:40:08;20.33;60.91
22917;DHT22;11624;53.250;7.456;2023-05-10T01:42:43;20.33;61.11
22917;DHT22;11624;53.250;7.456;2023-05-10T01:45:20;20.31;61.11
22917;DHT22;11624;53.250;7.456;2023-05-10T01:47:58;20.30;61.11
22917;DHT22;11624;53.250;7.456;2023-05-10T01:50:30;20.37;61.16
22917;DHT22;11624;53.250;7.456;2023-05-10T01:53:01;20.41;61.09
22917;DHT22;11624;53.250;7.456;2023-05-10T01:55:34;20.37;61.13
22917;DHT22;11624;53.250;7.456;2023-05-10T01:58:06;20.37;61.09
22917;DHT22;11624;53.250;7.456;2023-05-10T02:00:35;20.31;61.38
22917;DHT22;11624;53.250;7.456;2023-05-10T02:03:08;20.34;60.92
22917;DHT22;11624;53.250;7.456;2023-05-10T02:05:39;20.33;61.17
22917;DHT22;11624;53.250;7.456;2023-05-10T02:08:08;20.22;61.25
22917;DHT22;11624;53.250;7.456;2023-05-10T02:10:37;20.24;61.18
22917;DHT22;11624;53.250;7.456;2023-05-10T02:13:08;20.18;61.18
22917;DHT22;11624;53.250;7.456;2023-05-10T02:15:39;20.16;60.80
22917;DHT22;11624;53.250;7.456;2023-05-10T02:18:10;20.02;60.62
22917;DHT22;11624;53.250;7.456;2023-05-10T02:20:39;19.90;60.89
22917;DHT22;11624;53.250;7.456;2023-05-10T02:23:09;19.90;60.78
22917;DHT22;11624;53.250;7.456;2023-05-10T02:25:37;19.89;60.71
22917;DHT22;11624;53.250;7.456;2023-05-10T02:28:07;19.87;60.71
22917;DHT22;11624;53.250;7.456;2023-05-10T02:30:36;19.81;60.93
22917;DHT22;11624;53.250;7.456;2023-05-10T02:33:05;19.76;60.89
22917;DHT22;11624;53.250;7.456;2023-05-10T02:35:36;19.74;60.74
22917;DHT22;11624;53.250;7.456;2023-05-10T02:38:09;19.72;60.78
22917;DHT22;11624;53.250;7.456;2023-05-10T02:40:40;19.70;60.65
22917;DHT22;11624;53.250;7.456;2023-05-10T02:43:12;19.67;60.55
22917;DHT22;11624;53.250;7.456;2023-05-10T02:45:41;19.66;60.67
22917;DHT22;11624;53.250;7.456;2023-05-10T02:48:10;19.60;60.54
22917;DHT22;11624;53.250;7.456;2023-05-10T02:50:42;19.57;60.61
22917;DHT22;11624;53.250;7.456;2023-05-10T02:53:15;19.55;60.63
22917;DHT22;11624;53.250;7.456;2023-05-10T02:55:45;19.52;60.86
22917;DHT22;11624;53.250;7.456;2023-05-10T02:58:16;19.52;60.74
22917;DHT22;11624;53.250;7.456;2023-05-10T03:00:46;19.47;60.80
22917;DHT22;11624;53.250;7.456;2023-05-10T03:03:14;19.48;60.68
22917;DHT22;11624;53.250;7.456;2023-05-10T03:05:44;19.51;60.64
22917;DHT22;11624;53.250;7.456;2023-05-10T03:08:12;19.52;60.57
22917;DHT22;11624;53.250;7.456;2023-05-10T03:10:48;19.50;60.30
22917;DHT22;11624;53.250;7.456;2023-05-10T03:13:25;19.51;60.28
22917;DHT22;11624;53.250;7.456;2023-05-10T03:16:01;19.53;60.42
22917;DHT22;11624;53.250;7.456;2023-05-10T03:18:38;19.56;60.15
22917;DHT22;11624;53.250;7.456;2023-05-10T03:21:12;19.56;60.28
22917;DHT22;11624;53.250;7.456;2023-05-10T03:23:46;19.58;60.31
22917;DHT22;11624;53.250;7.456;2023-05-10T03:26:19;19.57;60.33
22917;DHT22;11624;53.250;7.456;2023-05-10T03:28:49;19.57;60.44
22917;DHT22;11624;53.250;7.456;2023-05-10T03:31:18;19.58;60.46
22917;DHT22;11624;53.250;7.456;2023-05-10T03:33:47;19.56;60.50
22917;DHT22;11624;53.250;7.456;2023-05-10T03:36:22;19.55;60.52
22917;DHT22;11624;53.250;7.456;2023-05-10T03:38:51;19.56;60.55
22917;DHT22;11624;53.250;7.456;2023-05-10T03:41:19;19.53;60.57
22917;DHT22;11624;53.250;7.456;2023-05-10T03:43:48;19.53;60.54
22917;DHT22;11624;53.250;7.456;2023-05-10T03:46:16;19.53;60.54
22917;DHT22;11624;53.250;7.456;2023-05-10T03:48:44;19.50;60.60
22917;DHT22;11624;53.250;7.456;2023-05-10T03:51:13;19.48;60.63
22917;DHT22;11624;53.250;7.456;2023-05-10T03:53:42;19.46;60.57
22917;DHT22;11624;53.250;7.456;2023-05-10T03:56:11;19.48;60.59
22917;DHT22;11624;53.250;7.456;2023-05-10T03:58:40;19.48;60.57
22917;DHT22;11624;53.250;7.456;2023-05-10T04:01:08;19.47;60.54
22917;DHT22;11624;53.250;7.456;2023-05-10T04:03:36;19.39;60.73
22917;DHT22;11624;53.250;7.456;2023-05-10T04:06:05;19.36;60.77
22917;DHT22;11624;53.250;7.456;2023-05-10T04:08:36;19.36;60.79
22917;DHT22;11624;53.250;7.456;2023-05-10T04:11:06;19.35;60.75
22917;DHT22;11624;53.250;7.456;2023-05-10T04:13:35;19.36;60.91
22917;DHT22;11624;53.250;7.456;2023-05-10T04:16:04;19.40;60.84
22917;DHT22;11624;53.250;7.456;2023-05-10T04:18:33;19.40;60.86
22917;DHT22;11624;53.250;7.456;2023-05-10T04:21:01;19.42;60.80
22917;DHT22;11624;53.250;7.456;2023-05-10T04:23:29;19.39;60.80
22917;DHT22;11624;53.250;7.456;2023-05-10T04:26:01;19.38;60.73
22917;DHT22;11624;53.250;7.456;2023-05-10T04:28:31;19.36;60.99
22917;DHT22;11624;53.250;7.456;2023-05-10T04:31:03;19.41;60.77
22917;DHT22;11624;53.250;7.456;2023-05-10T04:33:32;19.42;60.97
22917;DHT22;11624;53.250;7.456;2023-05-10T04:36:00;19.40;60.99
22917;DHT22;11624;53.250;7.456;2023-05-10T04:38:29;19.37;61.04
22917;DHT22;11624;53.250;7.456;2023-05-10T04:41:04;19.41;60.68
22917;DHT22;11624;53.250;7.456;2023-05-10T04:43:34;19.40;61.04
22917;DHT22;11624;53.250;7.456;2023-05-10T04:46:03;19.43;60.96
22917;DHT22;11624;53.250;7.456;2023-05-10T04:48:32;19.40;61.10
22917;DHT22;11624;53.250;7.456;2023-05-10T04:51:00;19.48;61.01
22917;DHT22;11624;53.250;7.456;2023-05-10T04:53:30;19.51;60.91
22917;DHT22;11624;53.250;7.456;2023-05-10T04:55:59;19.51;60.84
22917;DHT22;11624;53.250;7.456;2023-05-10T04:58:27;19.50;60.88
22917;DHT22;11624;53.250;7.456;2023-05-10T05:00:57;19.50;60.80
22917;DHT22;11624;53.250;7.456;2023-05-10T05:03:25;19.44;60.89
22917;DHT22;11624;53.250;7.456;2023-05-10T05:05:53;19.46;60.87
22917;DHT22;11624;53.250;7.456;2023-05-10T05:08:22;19.46;60.86
22917;DHT22;11624;53.250;7.456;2023-05-10T05:10:50;19.47;60.85
22917;DHT22;11624;53.250;7.456;2023-05-10T05:13:19;19.44;60.93
22917;DHT22;11624;53.250;7.456;2023-05-10T05:15:47;19.37;60.99
22917;DHT22;11624;53.250;7.456;2023-05-10T05:18:17;19.40;60.96
22917;DHT22;11624;53.250;7.456;2023-05-10T05:20:45;19.40;61.01
22917;DHT22;11624;53.250;7.456;2023-05-10T05:23:13;19.41;60.97
22917;DHT22;11624;53.250;7.456;2023-05-10T05:25:42;19.36;61.04
22917;DHT22;11624;53.250;7.456;2023-05-10T05:28:10;19.35;61.08
22917;DHT22;11624;53.250;7.456;2023-05-10T05:30:38;19.42;60.98
22917;DHT22;11624;53.250;7.456;2023-05-10T05:33:06;19.44;60.95
22917;DHT22;11624;53.250;7.456;2023-05-10T05:35:36;19.55;60.67
22917;DHT22;11624;53.250;7.456;2023-05-10T05:38:05;19.56;60.65
22917;DHT22;11624;53.250;7.456;2023-05-10T05:40:33;19.54;60.75
22917;DHT22;11624;53.250;7.456;2023-05-10T05:43:01;19.51;60.83
22917;DHT22;11624;53.250;7.456;2023-05-10T05:45:30;19.42;61.02
22917;DHT22;11624;53.250;7.456;2023-05-10T05:47:58;19.46;60.89
22917;DHT22;11624;53.250;7.456;2023-05-10T05:50:26;19.52;60.81
22917;DHT22;11624;53.250;7.456;2023-05-10T05:52:56;19.56;60.71
22917;DHT22;11624;53.250;7.456;2023-05-10T05:55:24;19.60;60.70
22917;DHT22;11624;53.250;7.456;2023-05-10T05:57:53;19.63;60.65
22917;DHT22;11624;53.250;7.456;2023-05-10T06:00:22;19.60;60.64
22917;DHT22;11624;53.250;7.456;2023-05-10T06:02:50;19.55;60.76
22917;DHT22;11624;53.250;7.456;2023-05-10T06:05:18;19.50;60.70
22917;DHT22;11624;53.250;7.456;2023-05-10T06:07:47;19.54;60.57
22917;DHT22;11624;53.250;7.456;2023-05-10T06:10:16;19.56;60.52
22917;DHT22;11624;53.250;7.456;2023-05-10T06:12:45;19.53;60.67
22917;DHT22;11624;53.250;7.456;2023-05-10T06:15:13;19.52;60.53
22917;DHT22;11624;53.250;7.456;2023-05-10T06:17:42;19.48;60.60
22917;DHT22;11624;53.250;7.456;2023-05-10T06:20:12;19.51;60.57
22917;DHT22;11624;53.250;7.456;2023-05-10T06:22:40;19.54;60.51
22917;DHT22;11624;53.250;7.456;2023-05-10T06:25:09;19.50;60.74
22917;DHT22;11624;53.250;7.456;2023-05-10T06:27:39;19.45;60.76
22917;DHT22;11624;53.250;7.456;2023-05-10T06:30:09;19.47;60.80
22917;DHT22;11624;53.250;7.456;2023-05-10T06:32:39;19.42;61.01
22917;DHT22;11624;53.250;7.456;2023-05-10T06:35:08;19.37;61.13
22917;DHT22;11624;53.250;7.456;2023-05-10T06:37:37;19.40;61.18
22917;DHT22;11624;53.250;7.456;2023-05-10T06:40:06;19.40;61.31
22917;DHT22;11624;53.250;7.456;2023-05-10T06:42:36;19.45;61.29
22917;DHT22;11624;53.250;7.456;2023-05-10T06:45:07;19.42;61.25
22917;DHT22;11624;53.250;7.456;2023-05-10T06:47:36;19.42;61.36
22917;DHT22;11624;53.250;7.456;2023-05-10T06:50:06;19.45;61.46
22917;DHT22;11624;53.250;7.456;2023-05-10T06:52:35;19.50;61.39
22917;DHT22;11624;53.250;7.456;2023-05-10T06:55:04;19.44;61.57
22917;DHT22;11624;53.250;7.456;2023-05-10T06:57:32;19.41;61.60
22917;DHT22;11624;53.250;7.456;2023-05-10T07:00:01;19.39;61.22
22917;DHT22;11624;53.250;7.456;2023-05-10T07:02:32;19.33;61.47
22917;DHT22;11624;53.250;7.456;2023-05-10T07:05:00;19.40;61.73
22917;DHT22;11624;53.250;7.456;2023-05-10T07:07:29;19.41;61.89
22917;DHT22;11624;53.250;7.456;2023-05-10T07:09:58;19.54;61.80
22917;DHT22;11624;53.250;7.456;2023-05-10T07:12:26;19.56;61.75
22917;DHT22;11624;53.250;7.456;2023-05-10T07:14:54;19.54;61.70
22917;DHT22;11624;53.250;7.456;2023-05-10T07:17:23;19.52;61.45
22917;DHT22;11624;53.250;7.456;2023-05-10T07:19:53;19.45;61.45
22917;DHT22;11624;53.250;7.456;2023-05-10T07:22:21;19.41;61.57
22917;DHT22;11624;53.250;7.456;2023-05-10T07:24:49;19.40;61.81
22917;DHT22;11624;53.250;7.456;2023-05-10T07:27:17;19.51;61.63
22917;DHT22;11624;53.250;7.456;2023-05-10T07:29:46;19.62;61.71
22917;DHT22;11624;53.250;7.456;2023-05-10T07:32:14;19.68;61.40
22917;DHT22;11624;53.250;7.456;2023-05-10T07:34:42;19.70;61.36
22917;DHT22;11624;53.250;7.456;2023-05-10T07:37:12;19.76;61.26
22917;DHT22;11624;53.250;7.456;2023-05-10T07:39:40;19.85;60.93
22917;DHT22;11624;53.250;7.456;2023-05-10T07:42:09;19.76;60.88
22917;DHT22;11624;53.250;7.456;2023-05-10T07:44:37;19.69;60.96
22917;DHT22;11624;53.250;7.456;2023-05-10T07:47:05;19.62;60.96
22917;DHT22;11624;53.250;7.456;2023-05-10T07:49:33;19.59;60.98
22917;DHT22;11624;53.250;7.456;2023-05-10T07:52:03;19.58;60.96
22917;DHT22;11624;53.250;7.456;2023-05-10T07:54:32;19.59;60.89
22917;DHT22;11624;53.250;7.456;2023-05-10T07:57:01;19.60;60.95
22917;DHT22;11624;53.250;7.456;2023-05-10T07:59:29;19.54;61.02
22917;DHT22;11624;53.250;7.456;2023-05-10T08:01:58;19.54;60.98
22917;DHT22;11624;53.250;7.456;2023-05-10T08:04:27;19.57;61.02
22917;DHT22;11624;53.250;7.456;2023-05-10T08:06:55;19.66;61.06
22917;DHT22;11624;53.250;7.456;2023-05-10T08:09:24;19.67;61.00
22917;DHT22;11624;53.250;7.456;2023-05-10T08:11:57;19.61;60.91
22917;DHT22;11624;53.250;7.456;2023-05-10T08:14:27;19.69;60.91
22917;DHT22;11624;53.250;7.456;2023-05-10T08:16:56;19.76;61.00
22917;DHT22;11624;53.250;7.456;2023-05-10T08:19:24;19.80;60.96
22917;DHT22;11624;53.250;7.456;2023-05-10T08:22:00;19.81;60.74
22917;DHT22;11624;53.250;7.456;2023-05-10T08:24:52;19.80;60.67
22917;DHT22;11624;53.250;7.456;2023-05-10T08:27:30;19.68;61.30
22917;DHT22;11624;53.250;7.456;2023-05-10T08:30:02;19.61;61.47
22917;DHT22;11624;53.250;7.456;2023-05-10T08:32:43;19.61;61.49
22917;DHT22;11624;53.250;7.456;2023-05-10T08:35:23;19.52;61.33
22917;DHT22;11624;53.250;7.456;2023-05-10T08:37:55;19.53;62.02
22917;DHT22;11624;53.250;7.456;2023-05-10T08:40:28;19.55;61.98
22917;DHT22;11624;53.250;7.456;2023-05-10T08:43:16;19.63;61.69
22917;DHT22;11624;53.250;7.456;2023-05-10T08:45:59;19.68;61.79
22917;DHT22;11624;53.250;7.456;2023-05-10T08:48:35;19.68;61.86
22917;DHT22;11624;53.250;7.456;2023-05-10T08:51:23;19.61;61.47
22917;DHT22;11624;53.250;7.456;2023-05-10T08:54:00;19.54;61.90
22917;DHT22;11624;53.250;7.456;2023-05-10T08:56:40;19.46;61.99
22917;DHT22;11624;53.250;7.456;2023-05-10T08:59:19;19.51;62.05
22917;DHT22;11624;53.250;7.456;2023-05-10T09:01:51;19.53;61.83
22917;DHT22;11624;53.250;7.456;2023-05-10T09:04:29;19.40;61.83
22917;DHT22;11624;53.250;7.456;2023-05-10T09:07:11;19.43;62.15
22917;DHT22;11624;53.250;7.456;2023-05-10T09:09:46;19.41;61.86
22917;DHT22;11624;53.250;7.456;2023-05-10T09:12:23;19.47;61.96
22917;DHT22;11624;53.250;7.456;2023-05-10T09:15:09;19.38;61.70
22917;DHT22;11624;53.250;7.456;2023-05-10T09:17:44;19.38;61.99
22917;DHT22;11624;53.250;7.456;2023-05-10T09:20:45;19.29;61.92
22917;DHT22;11624;53.250;7.456;2023-05-10T09:23:22;19.30;62.07
22917;DHT22;11624;53.250;7.456;2023-05-10T09:26:22;19.29;61.73
22917;DHT22;11624;53.250;7.456;2023-05-10T09:29:26;19.26;62.07
22917;DHT22;11624;53.250;7.456;2023-05-10T09:32:41;19.22;61.86
22917;DHT22;11624;53.250;7.456;2023-05-10T09:35:32;19.29;61.90
22917;DHT22;11624;53.250;7.456;2023-05-10T09:38:13;19.32;61.63
22917;DHT22;11624;53.250;7.456;2023-05-10T09:40:54;19.29;61.58
22917;DHT22;11624;53.250;7.456;2023-05-10T09:43:37;19.22;62.04
22917;DHT22;11624;53.250;7.456;2023-05-10T09:46:48;19.22;62.52
22917;DHT22;11624;53.250;7.456;2023-05-10T09:49:25;19.32;61.99
22917;DHT22;11624;53.250;7.456;2023-05-10T09:52:03;19.39;61.50
22917;DHT22;11624;53.250;7.456;2023-05-10T09:54:51;19.44;61.31
22917;DHT22;11624;53.250;7.456;2023-05-10T09:57:31;19.29;61.77
22917;DHT22;11624;53.250;7.456;2023-05-10T10:00:13;19.25;61.89
22917;DHT22;11624;53.250;7.456;2023-05-10T10:03:05;19.36;61.74
22917;DHT22;11624;53.250;7.456;2023-05-10T10:05:57;19.46;61.12
22917;DHT22;11624;53.250;7.456;2023-05-10T10:08:32;19.42;61.29
22917;DHT22;11624;53.250;7.456;2023-05-10T10:11:08;19.32;61.30
22917;DHT22;11624;53.250;7.456;2023-05-10T10:13:38;19.44;61.51
22917;DHT22;11624;53.250;7.456;2023-05-10T10:16:19;19.41;61.08
22917;DHT22;11624;53.250;7.456;2023-05-10T10:19:03;19.40;61.22
22917;DHT22;11624;53.250;7.456;2023-05-10T10:21:41;19.46;61.18
22917;DHT22;11624;53.250;7.456;2023-05-10T10:24:17;19.46;61.31
22917;DHT22;11624;53.250;7.456;2023-05-10T10:27:05;19.41;61.17
22917;DHT22;11624;53.250;7.456;2023-05-10T10:30:02;19.30;61.11
22917;DHT22;11624;53.250;7.456;2023-05-10T10:32:47;19.35;61.12
22917;DHT22;11624;53.250;7.456;2023-05-10T10:35:24;19.43;61.16
22917;DHT22;11624;53.250;7.456;2023-05-10T10:37:57;19.55;60.97
22917;DHT22;11624;53.250;7.456;2023-05-10T10:40:37;19.62;60.76
22917;DHT22;11624;53.250;7.456;2023-05-10T10:43:36;19.69;60.78
22917;DHT22;11624;53.250;7.456;2023-05-10T10:46:16;19.77;60.97
22917;DHT22;11624;53.250;7.456;2023-05-10T10:49:10;19.96;60.85
22917;DHT22;11624;53.250;7.456;2023-05-10T10:52:17;20.09;60.23
22917;DHT22;11624;53.250;7.456;2023-05-10T10:55:10;20.24;60.15
22917;DHT22;11624;53.250;7.456;2023-05-10T10:57:52;20.30;60.02
22917;DHT22;11624;53.250;7.456;2023-05-10T11:00:39;20.48;59.22
22917;DHT22;11624;53.250;7.456;2023-05-10T11:03:18;20.63;59.07
22917;DHT22;11624;53.250;7.456;2023-05-10T11:05:58;20.73;58.70
22917;DHT22;11624;53.250;7.456;2023-05-10T11:08:44;20.72;58.61
22917;DHT22;11624;53.250;7.456;2023-05-10T11:11:24;20.70;58.51
22917;DHT22;11624;53.250;7.456;2023-05-10T11:14:04;20.55;58.23
22917;DHT22;11624;53.250;7.456;2023-05-10T11:16:43;20.54;58.38
22917;DHT22;11624;53.250;7.456;2023-05-10T11:19:19;20.65;58.54
22917;DHT22;11624;53.250;7.456;2023-05-10T11:21:48;20.79;58.48
22917;DHT22;11624;53.250;7.456;2023-05-10T11:24:20;20.90;58.17
22917;DHT22;11624;53.250;7.456;2023-05-10T11:26:51;20.99;57.77
22917;DHT22;11624;53.250;7.456;2023-05-10T11:29:19;21.07;57.86
22917;DHT22;11624;53.250;7.456;2023-05-10T11:31:48;21.08;58.02
22917;DHT22;11624;53.250;7.456;2023-05-10T11:34:24;21.01;57.13
22917;DHT22;11624;53.250;7.456;2023-05-10T11:36:53;20.95;57.20
22917;DHT22;11624;53.250;7.456;2023-05-10T11:39:25;20.79;57.29
22917;DHT22;11624;53.250;7.456;2023-05-10T11:41:55;20.77;57.59
22917;DHT22;11624;53.250;7.456;2023-05-10T11:44:23;20.77;57.42
22917;DHT22;11624;53.250;7.456;2023-05-10T11:46:52;20.85;57.31
22917;DHT22;11624;53.250;7.456;2023-05-10T11:49:20;20.84;57.47
22917;DHT22;11624;53.250;7.456;2023-05-10T11:51:51;20.94;57.20
22917;DHT22;11624;53.250;7.456;2023-05-10T11:54:19;21.02;57.29
22917;DHT22;11624;53.250;7.456;2023-05-10T11:56:47;21.11;57.19
22917;DHT22;11624;53.250;7.456;2023-05-10T11:59:19;21.16;56.51
22917;DHT22;11624;53.250;7.456;2023-05-10T12:01:48;21.14;56.34
22917;DHT22;11624;53.250;7.456;2023-05-10T12:04:16;21.28;56.87
22917;DHT22;11624;53.250;7.456;2023-05-10T12:06:45;21.45;56.74
22917;DHT22;11624;53.250;7.456;2023-05-10T12:09:14;21.53;56.06
22917;DHT22;11624;53.250;7.456;2023-05-10T12:11:48;21.65;55.65
22917;DHT22;11624;53.250;7.456;2023-05-10T12:14:18;21.70;55.74
22917;DHT22;11624;53.250;7.456;2023-05-10T12:16:48;21.92;55.42
22917;DHT22;11624;53.250;7.456;2023-05-10T12:19:20;22.03;55.30
22917;DHT22;11624;53.250;7.456;2023-05-10T12:21:50;21.91;54.30
22917;DHT22;11624;53.250;7.456;2023-05-10T12:24:24;21.88;55.21
22917;DHT22;11624;53.250;7.456;2023-05-10T12:26:53;21.87;55.29
22917;DHT22;11624;53.250;7.456;2023-05-10T12:29:23;21.80;55.14
22917;DHT22;11624;53.250;7.456;2023-05-10T12:31:55;21.76;55.16
22917;DHT22;11624;53.250;7.456;2023-05-10T12:34:25;21.70;55.26
22917;DHT22;11624;53.250;7.456;2023-05-10T12:36:55;21.68;55.28
22917;DHT22;11624;53.250;7.456;2023-05-10T12:39:24;21.67;55.55
22917;DHT22;11624;53.250;7.456;2023-05-10T12:41:55;21.73;55.46
22917;DHT22;11624;53.250;7.456;2023-05-10T12:44:25;21.74;55.24
22917;DHT22;11624;53.250;7.456;2023-05-10T12:46:54;21.82;55.61
22917;DHT22;11624;53.250;7.456;2023-05-10T12:49:22;21.94;55.16
22917;DHT22;11624;53.250;7.456;2023-05-10T12:51:51;22.03;55.11
22917;DHT22;11624;53.250;7.456;2023-05-10T12:54:19;22.18;54.93
22917;DHT22;11624;53.250;7.456;2023-05-10T12:56:47;22.42;54.26
22917;DHT22;11624;53.250;7.456;2023-05-10T12:59:16;22.55;54.19
22917;DHT22;11624;53.250;7.456;2023-05-10T13:01:46;22.64;53.74
22917;DHT22;11624;53.250;7.456;2023-05-10T13:04:14;22.57;53.20
22917;DHT22;11624;53.250;7.456;2023-05-10T13:06:42;22.51;52.88
22917;DHT22;11624;53.250;7.456;2023-05-10T13:09:11;22.53;52.78
22917;DHT22;11624;53.250;7.456;2023-05-10T13:11:39;22.47;52.95
22917;DHT22;11624;53.250;7.456;2023-05-10T13:14:07;22.42;52.99
22917;DHT22;11624;53.250;7.456;2023-05-10T13:16:35;22.42;52.82
22917;DHT22;11624;53.250;7.456;2023-05-10T13:19:05;22.43;52.69
22917;DHT22;11624;53.250;7.456;2023-05-10T13:21:34;22.32;52.96
22917;DHT22;11624;53.250;7.456;2023-05-10T13:24:02;22.34;52.78
22917;DHT22;11624;53.250;7.456;2023-05-10T13:26:33;22.37;52.90
22917;DHT22;11624;53.250;7.456;2023-05-10T13:29:03;22.47;53.13
22917;DHT22;11624;53.250;7.456;2023-05-10T13:31:31;22.56;53.01
22917;DHT22;11624;53.250;7.456;2023-05-10T13:34:04;22.51;52.21
22917;DHT22;11624;53.250;7.456;2023-05-10T13:36:33;22.50;52.33
22917;DHT22;11624;53.250;7.456;2023-05-10T13:39:03;22.51;52.43
22917;DHT22;11624;53.250;7.456;2023-05-10T13:41:35;22.57;52.66
22917;DHT22;11624;53.250;7.456;2023-05-10T13:44:11;22.64;52.47
22917;DHT22;11624;53.250;7.456;2023-05-10T13:46:50;22.82;52.39
22917;DHT22;11624;53.250;7.456;2023-05-10T13:49:20;22.90;52.17
22917;DHT22;11624;53.250;7.456;2023-05-10T13:51:49;22.99;51.72
22917;DHT22;11624;53.250;7.456;2023-05-10T13:54:17;23.00;51.71
22917;DHT22;11624;53.250;7.456;2023-05-10T13:56:47;23.06;51.66
22917;DHT22;11624;53.250;7.456;2023-05-10T13:59:15;23.12;51.61
22917;DHT22;11624;53.250;7.456;2023-05-10T14:01:44;23.14;51.01
22917;DHT22;11624;53.250;7.456;2023-05-10T14:04:13;23.21;50.97
22917;DHT22;11624;53.250;7.456;2023-05-10T14:06:43;23.37;50.78
22917;DHT22;11624;53.250;7.456;2023-05-10T14:09:12;23.49;50.61
22917;DHT22;11624;53.250;7.456;2023-05-10T14:11:40;23.60;50.05
22917;DHT22;11624;53.250;7.456;2023-05-10T14:14:10;23.64;49.68
22917;DHT22;11624;53.250;7.456;2023-05-10T14:16:38;23.60;49.49
22917;DHT22;11624;53.250;7.456;2023-05-10T14:19:06;23.42;49.33
22917;DHT22;11624;53.250;7.456;2023-05-10T14:21:35;23.29;49.72
22917;DHT22;11624;53.250;7.456;2023-05-10T14:24:05;23.17;49.62
22917;DHT22;11624;53.250;7.456;2023-05-10T14:26:33;23.13;50.23
22917;DHT22;11624;53.250;7.456;2023-05-10T14:29:02;23.11;49.74
22917;DHT22;11624;53.250;7.456;2023-05-10T14:31:30;22.98;49.80
22917;DHT22;11624;53.250;7.456;2023-05-10T14:41:44;22.95;49.49
22917;DHT22;11624;53.250;7.456;2023-05-10T14:44:13;22.93;50.01
22917;DHT22;11624;53.250;7.456;2023-05-10T14:46:42;22.95;50.05
22917;DHT22;11624;53.250;7.456;2023-05-10T14:49:10;22.92;50.14
22917;DHT22;11624;53.250;7.456;2023-05-10T14:51:38;22.81;49.99
22917;DHT22;11624;53.250;7.456;2023-05-10T14:54:06;22.72;50.14
22917;DHT22;11624;53.250;7.456;2023-05-10T14:56:35;22.67;50.11
22917;DHT22;11624;53.250;7.456;2023-05-10T14:59:05;22.68;50.42
22917;DHT22;11624;53.250;7.456;2023-05-10T15:01:34;22.66;50.35
22917;DHT22;11624;53.250;7.456;2023-05-10T15:04:04;22.67;50.53
22917;DHT22;11624;53.250;7.456;2023-05-10T15:06:33;22.66;50.53
22917;DHT22;11624;53.250;7.456;2023-05-10T15:09:03;22.69;50.36
22917;DHT22;11624;53.250;7.456;2023-05-10T15:11:31;22.70;50.04
22917;DHT22;11624;53.250;7.456;2023-05-10T15:13:59;22.73;50.16
22917;DHT22;11624;53.250;7.456;2023-05-10T15:16:28;22.91;50.24
22917;DHT22;11624;53.250;7.456;2023-05-10T15:18:59;23.08;50.23
22917;DHT22;11624;53.250;7.456;2023-05-10T15:21:28;23.18;49.35
22917;DHT22;11624;53.250;7.456;2023-05-10T15:24:01;23.21;48.88
22917;DHT22;11624;53.250;7.456;2023-05-10T15:26:30;23.29;49.07
22917;DHT22;11624;53.250;7.456;2023-05-10T15:28:58;23.28;48.36
22917;DHT22;11624;53.250;7.456;2023-05-10T15:31:26;23.27;48.53
22917;DHT22;11624;53.250;7.456;2023-05-10T15:33:57;23.32;48.36
22917;DHT22;11624;53.250;7.456;2023-05-10T15:36:26;23.34;48.25
22917;DHT22;11624;53.250;7.456;2023-05-10T15:38:54;23.26;48.15
22917;DHT22;11624;53.250;7.456;2023-05-10T15:41:28;23.23;48.31
22917;DHT22;11624;53.250;7.456;2023-05-10T15:43:57;23.14;48.78
22917;DHT22;11624;53.250;7.456;2023-05-10T15:46:26;23.12;48.52
22917;DHT22;11624;53.250;7.456;2023-05-10T15:48:54;23.12;48.67
22917;DHT22;11624;53.250;7.456;2023-05-10T15:51:24;23.24;48.65
22917;DHT22;11624;53.250;7.456;2023-05-10T15:53:52;23.25;48.09
22917;DHT22;11624;53.250;7.456;2023-05-10T15:56:33;23.32;47.62
22917;DHT22;11624;53.250;7.456;2023-05-10T15:59:01;23.35;47.52
22917;DHT22;11624;53.250;7.456;2023-05-10T16:01:30;23.40;47.70
22917;DHT22;11624;53.250;7.456;2023-05-10T16:03:58;23.46;47.21
22917;DHT22;11624;53.250;7.456;2023-05-10T16:06:28;23.49;47.67
22917;DHT22;11624;53.250;7.456;2023-05-10T16:08:57;23.54;47.87
22917;DHT22;11624;53.250;7.456;2023-05-10T16:11:25;23.59;47.78